createdAt,value
2023-02-20T00:00:41.739Z,1.50
2023-02-20T00:03:09.952Z,2.23
2023-02-20T00:05:37.924Z,2.17
2023-02-20T00:08:06.340Z,1.80
2023-02-20T00:10:34.569Z,1.90
2023-02-20T00:13:02.730Z,2.10
2023-02-20T00:15:30.704Z,2.00
2023-02-20T00:18:00.154Z,1.83
2023-02-20T00:20:30.365Z,2.30
2023-02-20T00:22:58.304Z,1.90
2023-02-20T00:25:26.304Z,2.20
2023-02-20T00:27:54.300Z,2.00
2023-02-20T00:30:24.069Z,2.60
2023-02-20T00:32:52.705Z,2.10
2023-02-20T00:35:22.536Z,1.93
2023-02-20T00:37:51.014Z,2.10
2023-02-20T00:40:19.685Z,2.00
2023-02-20T00:42:47.768Z,14.20
2023-02-20T00:45:16.110Z,8.27
2023-02-20T00:47:44.082Z,2.57
2023-02-20T00:50:14.092Z,1.80
2023-02-20T00:52:43.493Z,1.40
2023-02-20T00:55:11.687Z,1.80
2023-02-20T00:57:39.600Z,1.80
2023-02-20T01:00:10.874Z,1.90
2023-02-20T01:02:38.902Z,2.00
2023-02-20T01:05:07.200Z,2.00
2023-02-20T01:07:35.203Z,1.40
2023-02-20T01:10:04.625Z,1.73
2023-02-20T01:12:32.613Z,2.07
2023-02-20T01:15:00.578Z,1.77
2023-02-20T01:17:28.701Z,2.13
2023-02-20T01:19:56.662Z,1.60
2023-02-20T01:22:24.642Z,2.20
2023-02-20T01:24:52.587Z,1.90
2023-02-20T01:27:21.945Z,1.90
2023-02-20T01:29:49.934Z,1.80
2023-02-20T01:32:17.924Z,1.83
2023-02-20T01:34:45.929Z,1.77
2023-02-20T01:37:15.159Z,1.87
2023-02-20T01:39:43.642Z,2.20
2023-02-20T01:42:13.998Z,2.30
2023-02-20T01:44:43.902Z,1.70
2023-02-20T01:47:14.577Z,2.40
2023-02-20T01:49:44.178Z,1.67
2023-02-20T01:52:16.785Z,2.07
2023-02-20T01:54:46.565Z,2.13
2023-02-20T01:57:16.253Z,1.97
2023-02-20T01:59:45.771Z,2.10
2023-02-20T02:02:13.735Z,1.80
2023-02-20T02:04:42.962Z,1.70
2023-02-20T02:07:11.357Z,1.70
2023-02-20T02:09:42.833Z,1.70
2023-02-20T02:12:11.208Z,1.80
2023-02-20T02:14:39.119Z,2.13
2023-02-20T02:17:14.905Z,2.30
2023-02-20T02:20:15.617Z,1.50
2023-02-20T02:22:58.332Z,1.43
2023-02-20T02:25:33.533Z,1.40
2023-02-20T02:28:16.432Z,2.00
2023-02-20T02:31:02.596Z,1.77
2023-02-20T02:33:36.081Z,1.60
2023-02-20T02:36:34.016Z,1.40
2023-02-20T02:39:06.850Z,1.60
2023-02-20T02:41:41.191Z,1.60
2023-02-20T02:44:12.600Z,1.93
2023-02-20T02:46:42.021Z,1.63
2023-02-20T02:49:13.569Z,1.83
2023-02-20T02:51:45.868Z,1.83
2023-02-20T02:54:16.283Z,2.17
2023-02-20T02:56:46.149Z,2.00
2023-02-20T02:59:16.475Z,1.80
2023-02-20T03:01:45.795Z,1.90
2023-02-20T03:04:14.645Z,2.20
2023-02-20T03:06:44.141Z,2.00
2023-02-20T03:09:13.587Z,2.03
2023-02-20T03:11:43.315Z,1.80
2023-02-20T03:14:30.267Z,2.00
2023-02-20T03:17:00.661Z,2.23
2023-02-20T03:19:29.883Z,2.20
2023-02-20T03:21:58.702Z,1.77
2023-02-20T03:24:27.548Z,2.10
2023-02-20T03:26:58.024Z,1.93
2023-02-20T03:29:29.190Z,2.00
2023-02-20T03:32:17.154Z,2.30
2023-02-20T03:35:03.603Z,2.10
2023-02-20T03:37:50.324Z,2.03
2023-02-20T03:40:36.952Z,2.40
2023-02-20T03:43:24.311Z,2.00
2023-02-20T03:45:53.228Z,1.70
2023-02-20T03:48:23.279Z,2.57
2023-02-20T03:50:51.309Z,2.60
2023-02-20T03:53:19.620Z,2.80
2023-02-20T03:55:48.650Z,2.70
2023-02-20T03:58:20.400Z,3.30
2023-02-20T04:00:49.656Z,3.00
2023-02-20T04:03:19.095Z,2.83
2023-02-20T04:05:48.713Z,2.57
2023-02-20T04:08:18.306Z,2.60
2023-02-20T04:10:47.850Z,2.33
2023-02-20T04:13:18.546Z,2.00
2023-02-20T04:15:47.111Z,2.20
2023-02-20T04:18:16.504Z,1.77
2023-02-20T04:20:44.556Z,2.00
2023-02-20T04:23:15.152Z,1.97
2023-02-20T04:25:44.887Z,2.10
2023-02-20T04:28:13.843Z,2.40
2023-02-20T04:30:43.441Z,2.30
2023-02-20T04:33:11.955Z,2.60
2023-02-20T04:35:39.885Z,2.43
2023-02-20T04:38:07.888Z,2.60
2023-02-20T04:40:35.843Z,2.20
2023-02-20T04:43:03.838Z,1.87
2023-02-20T04:45:31.814Z,2.40
2023-02-20T04:48:01.169Z,2.00
2023-02-20T04:50:30.366Z,1.93
2023-02-20T04:52:58.358Z,2.23
2023-02-20T04:55:26.589Z,2.00
2023-02-20T04:57:56.312Z,2.23
2023-02-20T05:00:25.312Z,1.77
2023-02-20T05:02:53.404Z,1.70
2023-02-20T05:05:23.879Z,1.80
2023-02-20T05:07:55.093Z,2.03
2023-02-20T05:10:23.207Z,1.67
2023-02-20T05:12:51.119Z,1.90
2023-02-20T05:15:19.556Z,2.23
2023-02-20T05:17:47.858Z,1.90
2023-02-20T05:20:15.932Z,1.80
2023-02-20T05:22:45.162Z,2.13
2023-02-20T05:25:13.504Z,2.10
2023-02-20T05:27:42.727Z,1.93
2023-02-20T05:30:11.867Z,1.83
2023-02-20T05:32:39.866Z,1.73
2023-02-20T05:35:08.006Z,1.77
2023-02-20T05:37:35.948Z,2.10
2023-02-20T05:40:06.004Z,2.00
2023-02-20T05:42:35.182Z,2.23
2023-02-20T05:45:05.762Z,2.53
2023-02-20T05:47:34.011Z,1.87
2023-02-20T05:50:01.985Z,2.27
2023-02-20T05:52:29.928Z,2.30
2023-02-20T05:54:58.304Z,2.23
2023-02-20T05:57:27.641Z,2.53
2023-02-20T05:59:55.715Z,2.50
2023-02-20T06:02:23.862Z,2.37
2023-02-20T06:04:51.808Z,2.43
2023-02-20T06:07:19.876Z,2.30
2023-02-20T06:09:47.873Z,2.40
2023-02-20T06:12:15.849Z,2.33
2023-02-20T06:14:45.932Z,2.60
2023-02-20T06:17:13.886Z,2.20
2023-02-20T06:19:42.344Z,2.23
2023-02-20T06:22:10.608Z,2.70
2023-02-20T06:24:38.581Z,2.60
2023-02-20T06:27:08.730Z,2.47
2023-02-20T06:29:36.833Z,2.17
2023-02-20T06:32:06.468Z,3.10
2023-02-20T06:34:34.529Z,2.70
2023-02-20T06:37:03.603Z,2.57
2023-02-20T06:39:31.900Z,2.80
2023-02-20T06:41:59.916Z,3.10
2023-02-20T06:44:27.886Z,2.90
2023-02-20T06:46:55.844Z,2.73
2023-02-20T06:49:25.258Z,2.40
2023-02-20T06:51:54.092Z,2.53
2023-02-20T06:54:22.935Z,3.00
2023-02-20T06:56:51.365Z,2.73
2023-02-20T06:59:19.339Z,3.10
2023-02-20T07:01:47.330Z,4.63
2023-02-20T07:04:17.508Z,5.77
2023-02-20T07:06:47.360Z,5.80
2023-02-20T07:09:15.413Z,5.60
2023-02-20T07:11:43.897Z,4.47
2023-02-20T07:14:11.875Z,4.77
2023-02-20T07:16:39.845Z,4.37
2023-02-20T07:19:07.817Z,3.87
2023-02-20T07:21:35.745Z,3.70
2023-02-20T07:24:05.377Z,4.10
2023-02-20T07:26:33.365Z,3.43
2023-02-20T07:29:01.951Z,3.70
2023-02-20T07:31:30.273Z,4.07
2023-02-20T07:33:58.680Z,4.20
2023-02-20T07:36:26.928Z,3.70
2023-02-20T07:38:55.748Z,4.20
2023-02-20T07:41:25.287Z,3.97
2023-02-20T07:43:53.338Z,3.97
2023-02-20T07:46:21.315Z,4.23
2023-02-20T07:48:49.263Z,4.80
2023-02-20T07:51:17.343Z,4.17
2023-02-20T07:53:48.860Z,3.80
2023-02-20T07:56:16.850Z,4.40
2023-02-20T07:58:46.189Z,5.20
2023-02-20T08:01:14.136Z,4.47
2023-02-20T08:03:42.259Z,5.83
2023-02-20T08:06:10.615Z,5.67
2023-02-20T08:08:38.751Z,5.03
2023-02-20T08:11:09.874Z,4.80
2023-02-20T08:13:38.383Z,4.70
2023-02-20T08:16:08.115Z,5.20
2023-02-20T08:18:36.094Z,6.37
2023-02-20T08:21:04.280Z,5.30
2023-02-20T08:23:32.273Z,5.07
2023-02-20T08:26:01.011Z,5.13
2023-02-20T08:28:29.087Z,5.87
2023-02-20T08:30:57.131Z,5.40
2023-02-20T08:33:26.614Z,5.10
2023-02-20T08:35:55.643Z,5.07
2023-02-20T08:38:25.500Z,5.20
2023-02-20T08:40:53.529Z,5.23
2023-02-20T08:43:21.804Z,5.03
2023-02-20T08:45:50.011Z,6.23
2023-02-20T08:48:18.202Z,5.93
2023-02-20T08:50:48.234Z,4.93
2023-02-20T08:53:16.308Z,5.17
2023-02-20T08:55:44.346Z,5.87
2023-02-20T08:58:12.916Z,5.27
2023-02-20T09:00:40.923Z,5.43
2023-02-20T09:03:08.922Z,5.60
2023-02-20T09:05:39.066Z,4.97
2023-02-20T09:08:08.696Z,4.73
2023-02-20T09:10:36.917Z,4.60
2023-02-20T09:13:04.934Z,4.80
2023-02-20T09:15:38.822Z,4.77
2023-02-20T09:18:09.599Z,5.10
2023-02-20T09:20:38.180Z,4.80
2023-02-20T09:23:06.375Z,5.33
2023-02-20T09:25:36.176Z,4.70
2023-02-20T09:28:04.219Z,4.93
2023-02-20T09:30:32.222Z,4.87
2023-02-20T09:33:00.325Z,4.93
2023-02-20T09:35:29.704Z,5.13
2023-02-20T09:37:58.103Z,4.73
2023-02-20T09:40:27.014Z,5.10
2023-02-20T09:43:13.847Z,4.13
2023-02-20T09:45:43.029Z,4.27
2023-02-20T09:48:17.547Z,4.10
2023-02-20T09:50:49.481Z,4.67
2023-02-20T09:53:21.509Z,4.43
2023-02-20T09:55:50.514Z,4.97
2023-02-20T09:58:27.812Z,3.40
2023-02-20T10:00:57.984Z,4.13
2023-02-20T10:03:30.869Z,3.13
2023-02-20T10:05:58.952Z,2.97
2023-02-20T10:08:26.970Z,2.50
2023-02-20T10:10:59.138Z,2.50
2023-02-20T10:13:40.653Z,2.90
2023-02-20T10:16:13.687Z,2.87
2023-02-20T10:18:45.983Z,2.67
2023-02-20T10:21:17.167Z,2.83
2023-02-20T10:23:56.724Z,2.10
2023-02-20T10:26:34.310Z,2.97
2023-02-20T10:29:15.462Z,2.63
2023-02-20T10:31:47.049Z,2.50
2023-02-20T10:34:18.206Z,4.23
2023-02-20T10:36:48.612Z,2.63
2023-02-20T10:39:18.034Z,2.40
2023-02-20T10:41:51.397Z,3.07
2023-02-20T10:44:23.142Z,3.53
2023-02-20T10:46:53.513Z,3.13
2023-02-20T10:49:25.588Z,2.80
2023-02-20T10:51:56.670Z,2.40
2023-02-20T10:54:27.333Z,2.67
2023-02-20T10:56:59.073Z,2.53
2023-02-20T10:59:32.383Z,3.13
2023-02-20T11:02:02.406Z,2.87
2023-02-20T11:04:33.619Z,3.03
2023-02-20T11:07:02.825Z,3.20
2023-02-20T11:09:30.892Z,2.50
2023-02-20T11:11:59.555Z,3.17
2023-02-20T11:14:40.590Z,3.20
2023-02-20T11:17:12.838Z,3.33
2023-02-20T11:19:43.007Z,3.20
2023-02-20T11:22:11.122Z,3.13
2023-02-20T11:24:39.576Z,3.17
2023-02-20T11:27:10.769Z,3.17
2023-02-20T11:29:48.145Z,3.20
2023-02-20T11:32:33.786Z,2.77
2023-02-20T11:35:21.466Z,3.20
2023-02-20T11:37:55.255Z,3.30
2023-02-20T11:40:26.889Z,3.83
2023-02-20T11:42:54.924Z,3.40
2023-02-20T11:45:26.052Z,3.93
2023-02-20T11:48:10.693Z,3.13
2023-02-20T11:50:42.611Z,3.20
2023-02-20T11:53:17.497Z,3.57
2023-02-20T11:55:54.993Z,3.77
2023-02-20T11:58:28.573Z,2.83
2023-02-20T12:00:58.190Z,2.90
2023-02-20T12:03:28.496Z,2.60
2023-02-20T12:05:56.776Z,3.13
2023-02-20T12:08:42.496Z,2.73
2023-02-20T12:11:11.928Z,2.70
2023-02-20T12:13:41.153Z,2.53
2023-02-20T12:16:31.426Z,3.23
2023-02-20T12:19:04.676Z,2.70
2023-02-20T12:21:38.206Z,2.83
2023-02-20T12:24:11.297Z,2.33
2023-02-20T12:26:45.039Z,2.20
2023-02-20T12:29:20.152Z,2.57
2023-02-20T12:31:53.203Z,3.23
2023-02-20T12:34:33.222Z,3.03
2023-02-20T12:37:05.259Z,3.00
2023-02-20T12:39:38.281Z,4.90
2023-02-20T12:42:11.425Z,2.77
2023-02-20T12:44:45.841Z,2.53
2023-02-20T12:47:18.073Z,2.60
2023-02-20T12:49:55.887Z,2.73
2023-02-20T12:52:31.765Z,2.67
2023-02-20T12:55:02.129Z,2.50
2023-02-20T12:57:34.848Z,3.00
2023-02-20T13:00:03.940Z,2.43
2023-02-20T13:02:42.412Z,2.90
2023-02-20T13:05:13.319Z,2.90
2023-02-20T13:07:44.236Z,2.90
2023-02-20T13:10:15.778Z,2.90
2023-02-20T13:12:43.671Z,3.20
2023-02-20T13:15:23.968Z,2.90
2023-02-20T13:17:54.383Z,2.90
2023-02-20T13:20:27.004Z,2.30
2023-02-20T13:23:01.954Z,1.60
2023-02-20T13:25:39.542Z,2.27
2023-02-20T13:28:22.461Z,2.13
2023-02-20T13:31:07.925Z,2.20
2023-02-20T13:33:37.447Z,2.50
2023-02-20T13:36:28.932Z,2.37
2023-02-20T13:39:14.528Z,2.80
2023-02-20T13:41:57.497Z,2.43
2023-02-20T13:44:39.248Z,2.80
2023-02-20T13:47:28.504Z,2.07
2023-02-20T13:49:58.927Z,2.40
2023-02-20T13:52:41.895Z,2.00
2023-02-20T13:55:16.014Z,1.80
2023-02-20T13:57:45.860Z,1.93
2023-02-20T14:00:22.310Z,2.37
2023-02-20T14:02:50.305Z,1.90
2023-02-20T14:05:21.300Z,1.77
2023-02-20T14:07:49.496Z,2.13
2023-02-20T14:10:19.077Z,2.20
2023-02-20T14:12:48.029Z,2.00
2023-02-20T14:15:52.676Z,2.40
2023-02-20T14:18:26.066Z,2.00
2023-02-20T14:20:57.061Z,2.10
2023-02-20T14:23:26.626Z,1.97
2023-02-20T14:26:00.753Z,2.03
2023-02-20T14:28:29.597Z,1.50
2023-02-20T14:31:08.295Z,1.80
2023-02-20T14:33:37.751Z,2.33
2023-02-20T14:36:11.514Z,2.20
2023-02-20T14:38:48.412Z,1.93
2023-02-20T14:41:19.552Z,1.83
2023-02-20T14:43:54.998Z,1.60
2023-02-20T14:46:24.707Z,2.00
2023-02-20T14:49:04.538Z,1.93
2023-02-20T14:51:32.481Z,1.77
2023-02-20T14:54:01.209Z,1.77
2023-02-20T14:56:29.608Z,1.87
2023-02-20T14:58:57.556Z,1.70
2023-02-20T15:01:39.293Z,2.10
2023-02-20T15:04:12.581Z,2.07
2023-02-20T15:06:41.567Z,2.00
2023-02-20T15:09:21.393Z,1.57
2023-02-20T15:11:50.870Z,1.70
2023-02-20T15:14:20.247Z,1.67
2023-02-20T15:16:48.287Z,1.60
2023-02-20T15:19:34.404Z,1.93
2023-02-20T15:22:02.409Z,1.47
2023-02-20T15:24:38.545Z,1.80
2023-02-20T15:27:16.912Z,1.87
2023-02-20T15:29:45.562Z,1.90
2023-02-20T15:32:19.103Z,2.07
2023-02-20T15:34:50.722Z,1.90
2023-02-20T15:37:22.731Z,2.50
2023-02-20T15:39:55.698Z,2.17
2023-02-20T15:42:24.662Z,2.30
2023-02-20T15:44:53.660Z,2.27
2023-02-20T15:47:21.565Z,2.10
2023-02-20T15:49:50.925Z,1.77
2023-02-20T15:52:20.171Z,1.70
2023-02-20T15:54:50.908Z,1.70
2023-02-20T15:57:19.305Z,1.77
2023-02-20T15:59:47.935Z,1.73
2023-02-20T16:02:19.502Z,1.83
2023-02-20T16:04:47.940Z,1.47
2023-02-20T16:07:17.942Z,1.87
2023-02-20T16:09:45.984Z,1.30
2023-02-20T16:12:16.433Z,1.10
2023-02-20T16:14:44.398Z,1.40
2023-02-20T16:17:15.251Z,1.30
2023-02-20T16:19:43.396Z,1.27
2023-02-20T16:22:11.746Z,1.67
2023-02-20T16:24:43.289Z,1.43
2023-02-20T16:27:23.891Z,1.40
2023-02-20T16:29:53.104Z,1.30
2023-02-20T16:32:24.986Z,1.50
2023-02-20T16:34:53.501Z,2.10
2023-02-20T16:37:21.945Z,2.10
2023-02-20T16:39:51.441Z,2.23
2023-02-20T16:42:21.433Z,2.00
2023-02-20T16:44:49.558Z,2.00
2023-02-20T16:47:18.414Z,2.37
2023-02-20T16:49:46.681Z,2.27
2023-02-20T16:52:18.800Z,2.00
2023-02-20T16:54:47.275Z,2.10
2023-02-20T16:57:16.668Z,2.20
2023-02-20T16:59:44.601Z,2.20
2023-02-20T17:02:16.721Z,2.20
2023-02-20T17:04:44.679Z,2.77
2023-02-20T17:07:12.979Z,1.90
2023-02-20T17:09:45.067Z,1.87
2023-02-20T17:12:16.150Z,1.80
2023-02-20T17:14:45.560Z,1.70
2023-02-20T17:17:14.237Z,1.70
2023-02-20T17:19:42.622Z,2.17
2023-02-20T17:22:11.087Z,1.90
2023-02-20T17:24:40.419Z,1.90
2023-02-20T17:27:08.450Z,2.17
2023-02-20T17:29:36.460Z,1.90
2023-02-20T17:32:06.101Z,2.40
2023-02-20T17:34:34.118Z,2.70
2023-02-20T17:37:02.119Z,2.60
2023-02-20T17:39:30.395Z,2.57
2023-02-20T17:41:58.444Z,2.60
2023-02-20T17:44:27.528Z,2.43
2023-02-20T17:46:56.182Z,3.03
2023-02-20T17:49:25.956Z,4.80
2023-02-20T17:51:55.627Z,3.53
2023-02-20T17:54:24.173Z,4.30
2023-02-20T17:56:52.918Z,7.50
2023-02-20T17:59:21.118Z,6.77
2023-02-20T18:01:49.060Z,5.40
2023-02-20T18:04:20.230Z,4.90
2023-02-20T18:06:50.542Z,5.80
2023-02-20T18:09:19.212Z,6.27
2023-02-20T18:11:47.476Z,5.43
2023-02-20T18:14:15.671Z,5.97
2023-02-20T18:16:44.169Z,5.40
2023-02-20T18:19:13.924Z,5.13
2023-02-20T18:21:44.865Z,6.10
2023-02-20T18:24:14.513Z,9.47
2023-02-20T18:26:42.412Z,7.33
2023-02-20T18:29:10.395Z,4.60
2023-02-20T18:31:38.443Z,4.60
2023-02-20T18:34:06.522Z,5.10
2023-02-20T18:36:34.531Z,4.43
2023-02-20T18:39:03.982Z,4.77
2023-02-20T18:41:34.678Z,4.70
2023-02-20T18:44:02.623Z,4.77
2023-02-20T18:46:31.426Z,5.10
2023-02-20T18:48:59.709Z,4.83
2023-02-20T18:51:28.652Z,4.40
2023-02-20T18:53:56.578Z,5.27
2023-02-20T18:56:24.957Z,7.23
2023-02-20T18:58:54.607Z,4.67
2023-02-20T19:01:22.762Z,4.50
2023-02-20T19:03:51.471Z,4.27
2023-02-20T19:06:26.564Z,4.47
2023-02-20T19:08:54.875Z,4.80
2023-02-20T19:11:23.188Z,4.83
2023-02-20T19:13:51.125Z,5.10
2023-02-20T19:16:20.686Z,4.90
2023-02-20T19:18:50.686Z,5.10
2023-02-20T19:21:19.469Z,4.90
2023-02-20T19:23:47.888Z,4.77
2023-02-20T19:26:16.404Z,4.10
2023-02-20T19:28:44.483Z,8.90
2023-02-20T19:31:13.509Z,4.30
2023-02-20T19:33:43.071Z,4.80
2023-02-20T19:36:11.426Z,4.30
2023-02-20T19:38:39.816Z,4.30
2023-02-20T19:41:07.781Z,4.90
2023-02-20T19:43:35.730Z,5.33
2023-02-20T19:46:03.762Z,5.10
2023-02-20T19:48:31.826Z,5.50
2023-02-20T19:51:01.184Z,5.80
2023-02-20T19:53:29.170Z,5.77
2023-02-20T19:55:57.170Z,5.93
2023-02-20T19:58:25.117Z,5.37
2023-02-20T20:00:53.152Z,5.67
2023-02-20T20:03:21.123Z,5.50
2023-02-20T20:05:49.137Z,5.50
2023-02-20T20:08:18.516Z,5.97
2023-02-20T20:10:46.578Z,5.63
2023-02-20T20:13:14.506Z,5.10
2023-02-20T20:15:42.439Z,5.43
2023-02-20T20:18:10.446Z,5.90
2023-02-20T20:20:38.477Z,6.40
2023-02-20T20:23:06.703Z,6.70
2023-02-20T20:25:36.358Z,6.03
2023-02-20T20:28:07.483Z,6.00
2023-02-20T20:30:35.547Z,5.40
2023-02-20T20:33:03.605Z,6.33
2023-02-20T20:35:31.599Z,6.70
2023-02-20T20:38:00.397Z,7.20
2023-02-20T20:40:28.807Z,6.93
2023-02-20T20:42:59.225Z,6.60
2023-02-20T20:45:27.496Z,7.00
2023-02-20T20:47:55.552Z,6.90
2023-02-20T20:50:24.555Z,6.17
2023-02-20T20:52:52.517Z,6.80
2023-02-20T20:55:20.924Z,6.80
2023-02-20T20:57:51.639Z,6.47
2023-02-20T21:00:22.912Z,6.87
2023-02-20T21:02:51.220Z,7.57
2023-02-20T21:05:19.750Z,7.07
2023-02-20T21:07:48.061Z,7.93
2023-02-20T21:10:16.008Z,7.10
2023-02-20T21:12:44.180Z,7.60
2023-02-20T21:15:12.674Z,8.60
2023-02-20T21:17:42.481Z,8.13
2023-02-20T21:20:13.179Z,21.47
2023-02-20T21:22:41.177Z,10.53
2023-02-20T21:25:09.415Z,9.37
2023-02-20T21:27:37.381Z,9.47
2023-02-20T21:30:06.090Z,8.27
2023-02-20T21:32:34.087Z,9.63
2023-02-20T21:35:03.574Z,8.33
2023-02-20T21:37:31.585Z,8.37
2023-02-20T21:39:59.574Z,8.67
2023-02-20T21:42:44.976Z,8.97
2023-02-20T21:45:12.897Z,8.80
2023-02-20T21:47:40.806Z,8.37
2023-02-20T21:50:10.594Z,9.07
2023-02-20T21:52:38.538Z,8.60
2023-02-20T21:55:07.945Z,8.23
2023-02-20T21:57:35.940Z,8.73
2023-02-20T22:00:02.673Z,8.30
2023-02-20T22:02:29.415Z,7.83
2023-02-20T22:04:56.132Z,9.07
2023-02-20T22:07:42.648Z,8.77
2023-02-20T22:10:28.597Z,8.83
2023-02-20T22:13:14.222Z,8.47
2023-02-20T22:15:59.704Z,8.70
2023-02-20T22:18:45.387Z,6.93
2023-02-20T22:21:35.698Z,8.10
2023-02-20T22:24:30.451Z,8.90
2023-02-20T22:27:22.855Z,8.53
2023-02-20T22:30:08.687Z,7.83
2023-02-20T22:32:54.422Z,9.80
2023-02-20T22:35:40.217Z,17.20
2023-02-20T22:38:25.649Z,16.70
2023-02-20T22:41:12.496Z,12.07
2023-02-20T22:43:58.104Z,9.63
2023-02-20T22:46:43.675Z,12.10
2023-02-20T22:49:29.292Z,11.77
2023-02-20T22:52:14.749Z,9.17
2023-02-20T22:55:06.676Z,9.40
2023-02-20T22:57:53.541Z,9.43
2023-02-20T23:00:39.290Z,9.63
2023-02-20T23:03:24.966Z,9.30
2023-02-20T23:06:19.641Z,9.70
2023-02-20T23:09:05.390Z,9.73
2023-02-20T23:11:51.583Z,9.07
2023-02-20T23:14:38.212Z,9.33
2023-02-20T23:17:35.015Z,13.33
2023-02-20T23:20:21.836Z,17.50
2023-02-20T23:23:07.267Z,13.00
2023-02-20T23:25:52.796Z,9.73
2023-02-20T23:28:38.230Z,9.70
2023-02-20T23:31:25.605Z,9.73
2023-02-20T23:34:11.211Z,8.97
2023-02-20T23:36:56.793Z,8.57
2023-02-20T23:39:42.383Z,8.53
2023-02-20T23:42:27.829Z,8.13
2023-02-20T23:45:13.316Z,7.20
2023-02-20T23:48:00.762Z,8.23
2023-02-20T23:50:46.177Z,9.07
2023-02-20T23:53:31.699Z,9.83
2023-02-20T23:56:17.163Z,9.47
2023-02-20T23:59:02.576Z,8.93
